createdAt,value
2023-03-13T00:00:59.436Z,8.77
2023-03-13T00:03:27.399Z,8.77
2023-03-13T00:05:59.016Z,8.27
2023-03-13T00:08:28.686Z,9.82
2023-03-13T00:10:55.738Z,9.17
2023-03-13T00:13:22.416Z,7.63
2023-03-13T00:15:49.221Z,7.43
2023-03-13T00:18:15.972Z,7.83
2023-03-13T00:20:42.685Z,7.80
2023-03-13T00:23:09.401Z,7.43
2023-03-13T00:25:36.053Z,8.93
2023-03-13T00:28:02.755Z,8.20
2023-03-13T00:30:29.592Z,7.50
2023-03-13T00:32:56.328Z,8.30
2023-03-13T00:35:23.059Z,8.33
2023-03-13T00:37:49.813Z,8.57
2023-03-13T00:40:16.548Z,8.80
2023-03-13T00:42:43.128Z,8.47
2023-03-13T00:45:10.337Z,8.43
2023-03-13T00:47:37.015Z,8.97
2023-03-13T00:50:03.980Z,9.33
2023-03-13T00:52:30.645Z,8.83
2023-03-13T00:54:57.290Z,8.53
2023-03-13T00:57:23.978Z,9.67
2023-03-13T00:59:50.614Z,9.53
2023-03-13T01:02:17.422Z,8.87
2023-03-13T01:04:44.156Z,8.37
2023-03-13T01:07:10.832Z,8.83
2023-03-13T01:09:37.604Z,10.17
2023-03-13T01:12:04.492Z,10.53
2023-03-13T01:14:31.260Z,8.93
2023-03-13T01:16:57.935Z,8.80
2023-03-13T01:19:24.606Z,9.37
2023-03-13T01:21:51.301Z,9.57
2023-03-13T01:24:19.220Z,9.30
2023-03-13T01:26:45.900Z,9.13
2023-03-13T01:29:12.911Z,9.40
2023-03-13T01:31:40.036Z,9.07
2023-03-13T01:34:07.543Z,9.10
2023-03-13T01:36:37.810Z,8.77
2023-03-13T01:39:05.218Z,8.97
2023-03-13T01:41:31.984Z,8.57
2023-03-13T01:43:59.049Z,9.90
2023-03-13T01:46:28.032Z,9.57
2023-03-13T01:49:04.918Z,9.30
2023-03-13T01:51:40.193Z,9.07
2023-03-13T01:54:15.520Z,9.47
2023-03-13T01:56:48.876Z,8.43
2023-03-13T01:59:18.119Z,9.63
2023-03-13T02:01:47.406Z,8.70
2023-03-13T02:04:16.749Z,9.07
2023-03-13T02:06:46.686Z,8.90
2023-03-13T02:09:20.996Z,8.23
2023-03-13T02:11:53.558Z,7.43
2023-03-13T02:14:27.060Z,6.87
2023-03-13T02:16:55.116Z,8.60
2023-03-13T02:19:45.464Z,7.00
2023-03-13T02:22:21.061Z,6.93
2023-03-13T02:25:02.082Z,7.20
2023-03-13T02:27:29.222Z,8.40
2023-03-13T02:29:56.129Z,8.43
2023-03-13T02:32:24.074Z,7.57
2023-03-13T02:34:54.966Z,8.07
2023-03-13T02:37:22.382Z,8.53
2023-03-13T02:39:51.483Z,7.93
2023-03-13T02:42:20.435Z,7.70
2023-03-13T02:44:47.913Z,9.63
2023-03-13T02:47:22.296Z,7.80
2023-03-13T02:49:51.020Z,7.77
2023-03-13T02:52:27.982Z,7.93
2023-03-13T02:55:06.218Z,7.20
2023-03-13T02:57:34.011Z,7.53
2023-03-13T03:00:00.827Z,7.67
2023-03-13T03:02:27.605Z,8.13
2023-03-13T03:04:54.269Z,7.67
2023-03-13T03:07:21.006Z,7.93
2023-03-13T03:09:47.636Z,8.33
2023-03-13T03:12:14.332Z,7.37
2023-03-13T03:14:40.940Z,7.73
2023-03-13T03:17:07.784Z,8.07
2023-03-13T03:19:34.456Z,9.73
2023-03-13T03:22:01.090Z,9.63
2023-03-13T03:24:27.804Z,11.20
2023-03-13T03:26:54.511Z,11.30
2023-03-13T03:29:21.256Z,11.27
2023-03-13T03:31:48.434Z,10.87
2023-03-13T03:34:15.124Z,11.63
2023-03-13T03:36:42.483Z,11.60
2023-03-13T03:39:09.044Z,14.37
2023-03-13T03:41:37.438Z,13.53
2023-03-13T03:44:04.836Z,14.13
2023-03-13T03:46:31.669Z,13.70
2023-03-13T03:48:58.329Z,13.10
2023-03-13T03:51:25.009Z,13.13
2023-03-13T03:53:51.691Z,12.13
2023-03-13T03:56:18.351Z,13.43
2023-03-13T03:58:44.949Z,11.80
2023-03-13T04:01:11.606Z,13.50
2023-03-13T04:03:38.329Z,11.07
2023-03-13T04:06:07.012Z,12.90
2023-03-13T04:08:33.870Z,11.17
2023-03-13T04:11:01.951Z,11.03
2023-03-13T04:13:28.926Z,11.30
2023-03-13T04:15:55.568Z,10.90
2023-03-13T04:18:22.277Z,10.87
2023-03-13T04:20:48.917Z,11.00
2023-03-13T04:23:15.575Z,11.13
2023-03-13T04:25:42.203Z,9.03
2023-03-13T04:28:08.976Z,10.13
2023-03-13T04:30:35.595Z,9.40
2023-03-13T04:33:02.311Z,9.40
2023-03-13T04:35:29.047Z,10.90
2023-03-13T04:37:56.193Z,10.30
2023-03-13T04:40:22.882Z,9.97
2023-03-13T04:42:49.581Z,9.87
2023-03-13T04:45:16.262Z,9.90
2023-03-13T04:47:42.924Z,10.63
2023-03-13T04:50:10.222Z,10.50
2023-03-13T04:52:36.861Z,10.23
2023-03-13T04:55:03.789Z,10.20
2023-03-13T04:57:30.760Z,10.10
2023-03-13T04:59:57.387Z,10.03
2023-03-13T05:02:24.088Z,10.37
2023-03-13T05:04:52.289Z,9.77
2023-03-13T05:07:19.151Z,11.95
2023-03-13T05:09:45.812Z,10.53
2023-03-13T05:12:12.526Z,9.77
2023-03-13T05:14:39.199Z,9.13
2023-03-13T05:17:05.903Z,9.20
2023-03-13T05:19:32.535Z,9.27
2023-03-13T05:21:59.325Z,9.63
2023-03-13T05:24:25.990Z,9.90
2023-03-13T05:26:54.707Z,8.77
2023-03-13T05:29:21.832Z,8.90
2023-03-13T05:31:48.471Z,8.63
2023-03-13T05:34:15.176Z,9.20
2023-03-13T05:36:41.905Z,8.23
2023-03-13T05:39:08.589Z,8.70
2023-03-13T05:41:35.299Z,8.43
2023-03-13T05:44:02.044Z,8.77
2023-03-13T05:46:28.832Z,8.27
2023-03-13T05:48:55.480Z,9.23
2023-03-13T05:51:22.159Z,9.50
2023-03-13T05:53:48.848Z,7.00
2023-03-13T05:56:15.689Z,7.30
2023-03-13T05:58:45.320Z,7.20
2023-03-13T06:01:13.708Z,7.43
2023-03-13T06:03:40.640Z,7.53
2023-03-13T06:06:07.503Z,7.43
2023-03-13T06:08:34.143Z,5.90
2023-03-13T06:11:02.077Z,6.27
2023-03-13T06:13:28.991Z,6.33
2023-03-13T06:15:57.439Z,5.60
2023-03-13T06:18:24.860Z,5.33
2023-03-13T06:20:57.919Z,5.57
2023-03-13T06:23:24.752Z,5.77
2023-03-13T06:25:51.803Z,5.57
2023-03-13T06:28:18.506Z,5.30
2023-03-13T06:30:45.417Z,5.10
2023-03-13T06:33:12.372Z,4.80
2023-03-13T06:35:55.838Z,4.53
2023-03-13T06:38:24.928Z,4.40
2023-03-13T06:40:51.741Z,4.13
2023-03-13T06:43:19.311Z,4.67
2023-03-13T06:45:46.141Z,4.17
2023-03-13T06:48:12.807Z,4.00
2023-03-13T06:50:40.401Z,3.80
2023-03-13T06:53:07.539Z,3.50
2023-03-13T06:55:34.257Z,3.53
2023-03-13T06:58:00.948Z,3.30
2023-03-13T07:00:27.654Z,3.30
2023-03-13T07:02:54.330Z,3.20
2023-03-13T07:05:21.189Z,3.03
2023-03-13T07:07:47.866Z,3.10
2023-03-13T07:10:14.605Z,2.90
2023-03-13T07:12:41.315Z,2.80
2023-03-13T07:15:08.548Z,2.87
2023-03-13T07:17:35.426Z,2.73
2023-03-13T07:20:02.193Z,2.40
2023-03-13T07:22:28.962Z,2.80
2023-03-13T07:24:56.030Z,2.90
2023-03-13T07:27:23.211Z,2.93
2023-03-13T07:29:49.977Z,2.90
2023-03-13T07:32:16.734Z,2.80
2023-03-13T07:34:46.278Z,3.20
2023-03-13T07:37:14.416Z,3.53
2023-03-13T07:39:41.830Z,3.63
2023-03-13T07:42:11.687Z,4.37
2023-03-13T07:44:38.529Z,4.10
2023-03-13T07:47:05.549Z,4.50
2023-03-13T07:49:32.442Z,4.47
2023-03-13T07:51:59.159Z,4.70
2023-03-13T07:54:25.811Z,4.40
2023-03-13T07:56:52.512Z,4.47
2023-03-13T07:59:19.223Z,3.83
2023-03-13T08:01:45.935Z,4.73
2023-03-13T08:04:14.334Z,4.47
2023-03-13T08:06:42.035Z,4.00
2023-03-13T08:09:08.908Z,3.63
2023-03-13T08:11:35.799Z,3.90
2023-03-13T08:14:02.435Z,3.50
2023-03-13T08:16:34.514Z,3.30
2023-03-13T08:19:04.589Z,3.57
2023-03-13T08:21:34.482Z,3.00
2023-03-13T08:24:06.901Z,2.93
2023-03-13T08:26:36.028Z,2.77
2023-03-13T08:29:20.869Z,2.90
2023-03-13T08:31:50.094Z,2.90
2023-03-13T08:34:18.269Z,2.93
2023-03-13T08:36:45.340Z,2.70
2023-03-13T08:39:14.579Z,2.83
2023-03-13T08:41:41.548Z,2.73
2023-03-13T08:44:11.228Z,2.70
2023-03-13T08:46:38.319Z,2.60
2023-03-13T08:49:06.548Z,2.60
2023-03-13T08:51:34.252Z,2.50
2023-03-13T08:54:02.079Z,2.50
2023-03-13T08:56:30.508Z,2.50
2023-03-13T08:59:02.258Z,2.30
2023-03-13T09:01:31.700Z,2.20
2023-03-13T09:04:01.229Z,1.80
2023-03-13T09:06:29.714Z,2.13
2023-03-13T09:08:58.189Z,2.17
2023-03-13T09:11:25.256Z,2.20
2023-03-13T09:13:55.807Z,2.43
2023-03-13T09:16:24.772Z,2.10
2023-03-13T09:18:52.379Z,2.10
2023-03-13T09:21:37.318Z,1.93
2023-03-13T09:24:04.229Z,2.10
2023-03-13T09:26:31.123Z,1.73
2023-03-13T09:28:58.331Z,2.03
2023-03-13T09:31:31.403Z,1.80
2023-03-13T09:33:59.108Z,1.80
2023-03-13T09:36:26.572Z,1.70
2023-03-13T09:38:56.240Z,1.77
2023-03-13T09:41:38.693Z,1.77
2023-03-13T09:44:14.433Z,1.63
2023-03-13T09:46:53.382Z,1.40
2023-03-13T09:49:23.013Z,1.43
2023-03-13T09:51:56.495Z,1.33
2023-03-13T09:54:33.239Z,1.30
2023-03-13T09:57:11.910Z,1.13
2023-03-13T09:59:48.228Z,1.43
2023-03-13T10:02:31.523Z,1.07
2023-03-13T10:05:22.427Z,1.17
2023-03-13T10:07:49.734Z,1.40
2023-03-13T10:10:19.296Z,1.20
2023-03-13T10:12:49.111Z,1.27
2023-03-13T10:15:38.675Z,1.70
2023-03-13T10:18:21.730Z,1.67
2023-03-13T10:20:56.954Z,2.13
2023-03-13T10:23:27.489Z,2.00
2023-03-13T10:25:54.252Z,2.50
2023-03-13T10:28:22.580Z,2.40
2023-03-13T10:30:54.612Z,2.20
2023-03-13T10:33:27.703Z,2.60
2023-03-13T10:36:07.745Z,2.93
2023-03-13T10:38:52.008Z,2.63
2023-03-13T10:41:29.285Z,2.50
2023-03-13T10:44:01.321Z,2.77
2023-03-13T10:46:34.145Z,2.57
2023-03-13T10:49:04.098Z,2.20
2023-03-13T10:51:36.424Z,2.83
2023-03-13T10:54:15.043Z,2.20
2023-03-13T10:56:41.762Z,2.00
2023-03-13T10:59:26.688Z,2.73
2023-03-13T11:02:00.379Z,2.27
2023-03-13T11:04:30.149Z,1.80
2023-03-13T11:07:16.244Z,2.40
2023-03-13T11:09:42.950Z,2.27
2023-03-13T11:12:20.336Z,2.50
2023-03-13T11:14:47.416Z,2.27
2023-03-13T11:17:40.817Z,2.07
2023-03-13T11:20:27.965Z,1.77
2023-03-13T11:23:13.425Z,2.00
2023-03-13T11:26:02.604Z,1.80
2023-03-13T11:28:53.797Z,2.30
2023-03-13T11:31:28.418Z,1.53
2023-03-13T11:34:20.227Z,1.70
2023-03-13T11:37:09.773Z,2.20
2023-03-13T11:40:06.920Z,1.50
2023-03-13T11:42:43.217Z,1.70
2023-03-13T11:45:28.542Z,1.50
2023-03-13T11:48:21.902Z,1.60
2023-03-13T11:50:57.666Z,1.70
2023-03-13T11:54:05.729Z,2.00
2023-03-13T11:56:43.119Z,1.57
2023-03-13T11:59:41.464Z,1.67
2023-03-13T12:02:20.192Z,1.30
2023-03-13T12:04:54.740Z,1.73
2023-03-13T12:07:24.040Z,1.97
2023-03-13T12:10:02.988Z,2.27
2023-03-13T12:12:47.689Z,1.90
2023-03-13T12:15:14.472Z,1.70
2023-03-13T12:18:02.788Z,1.87
2023-03-13T12:20:55.995Z,1.87
2023-03-13T12:23:37.785Z,2.40
2023-03-13T12:26:15.592Z,2.93
2023-03-13T12:28:57.441Z,2.20
2023-03-13T12:31:27.006Z,3.13
2023-03-13T12:34:22.110Z,2.17
2023-03-13T12:37:01.099Z,2.63
2023-03-13T12:39:30.853Z,3.03
2023-03-13T12:42:00.602Z,2.33
2023-03-13T12:44:28.118Z,3.27
2023-03-13T12:47:01.562Z,2.40
2023-03-13T12:49:47.066Z,2.47
2023-03-13T12:52:26.390Z,3.10
2023-03-13T12:54:58.620Z,2.63
2023-03-13T12:57:59.839Z,3.27
2023-03-13T13:00:30.444Z,2.63
2023-03-13T13:03:27.741Z,2.53
2023-03-13T13:06:11.545Z,2.60
2023-03-13T13:09:08.548Z,2.50
2023-03-13T13:11:44.258Z,2.73
2023-03-13T13:14:19.838Z,3.17
2023-03-13T13:16:56.849Z,2.70
2023-03-13T13:19:23.471Z,2.73
2023-03-13T13:22:28.257Z,2.97
2023-03-13T13:24:59.092Z,3.00
2023-03-13T13:27:31.835Z,2.60
2023-03-13T13:30:01.360Z,2.67
2023-03-13T13:33:04.869Z,3.40
2023-03-13T13:35:36.553Z,3.00
2023-03-13T13:38:30.235Z,2.90
2023-03-13T13:41:09.251Z,3.37
2023-03-13T13:43:44.177Z,2.20
2023-03-13T13:46:30.032Z,2.53
2023-03-13T13:49:06.000Z,2.97
2023-03-13T13:51:43.049Z,2.73
2023-03-13T13:54:12.785Z,3.00
2023-03-13T13:56:49.418Z,2.77
2023-03-13T13:59:22.616Z,2.40
2023-03-13T14:02:10.981Z,2.50
2023-03-13T14:04:45.044Z,2.10
2023-03-13T14:07:41.017Z,2.63
2023-03-13T14:10:30.501Z,2.40
2023-03-13T14:12:59.629Z,2.10
2023-03-13T14:15:30.023Z,2.57
2023-03-13T14:18:01.248Z,2.40
2023-03-13T14:20:32.479Z,2.50
2023-03-13T14:23:06.264Z,2.50
2023-03-13T14:25:48.161Z,2.43
2023-03-13T14:28:31.458Z,2.50
2023-03-13T14:30:59.302Z,2.57
2023-03-13T14:33:27.730Z,2.30
2023-03-13T14:35:55.482Z,2.27
2023-03-13T14:38:27.208Z,2.00
2023-03-13T14:40:57.859Z,2.57
2023-03-13T14:43:33.589Z,2.87
2023-03-13T14:46:01.709Z,3.33
2023-03-13T14:48:32.212Z,2.60
2023-03-13T14:51:15.060Z,2.30
2023-03-13T14:53:57.574Z,2.67
2023-03-13T14:56:42.142Z,2.20
2023-03-13T14:59:19.500Z,2.60
2023-03-13T15:01:46.752Z,2.43
2023-03-13T15:04:13.554Z,2.33
2023-03-13T15:06:40.276Z,2.10
2023-03-13T15:09:09.942Z,3.10
2023-03-13T15:11:41.476Z,2.53
2023-03-13T15:14:36.232Z,3.10
2023-03-13T15:17:04.455Z,2.90
2023-03-13T15:19:32.333Z,3.47
2023-03-13T15:21:59.087Z,3.90
2023-03-13T15:24:25.819Z,2.87
2023-03-13T15:26:52.508Z,2.83
2023-03-13T15:29:20.207Z,3.00
2023-03-13T15:31:47.183Z,2.90
2023-03-13T15:34:15.009Z,2.70
2023-03-13T15:36:42.520Z,2.93
2023-03-13T15:39:19.364Z,3.43
2023-03-13T15:41:46.146Z,2.60
2023-03-13T15:44:12.896Z,3.00
2023-03-13T15:46:39.709Z,2.70
2023-03-13T15:49:11.376Z,3.50
2023-03-13T15:51:38.392Z,2.90
2023-03-13T15:54:05.236Z,2.70
2023-03-13T15:56:36.925Z,3.10
2023-03-13T15:59:13.955Z,2.80
2023-03-13T16:01:41.146Z,3.43
2023-03-13T16:04:08.048Z,2.83
2023-03-13T16:06:34.640Z,3.30
2023-03-13T16:09:06.512Z,3.90
2023-03-13T16:11:33.647Z,3.27
2023-03-13T16:14:00.483Z,3.03
2023-03-13T16:16:29.850Z,2.50
2023-03-13T16:18:57.862Z,3.40
2023-03-13T16:21:30.777Z,3.40
2023-03-13T16:23:58.131Z,3.40
2023-03-13T16:26:30.249Z,3.30
2023-03-13T16:28:57.847Z,3.70
2023-03-13T16:34:13.286Z,2.70
2023-03-13T16:36:39.974Z,4.00
2023-03-13T16:39:11.306Z,2.93
2023-03-13T16:41:41.119Z,3.13
2023-03-13T16:44:07.952Z,3.37
2023-03-13T16:46:40.631Z,3.20
2023-03-13T16:49:12.742Z,2.93
2023-03-13T16:51:39.775Z,3.10
2023-03-13T16:54:06.756Z,2.93
2023-03-13T16:56:38.928Z,3.57
2023-03-13T16:59:10.366Z,3.17
2023-03-13T17:01:37.472Z,3.97
2023-03-13T17:04:04.512Z,3.37
2023-03-13T17:06:37.744Z,2.90
2023-03-13T17:09:10.270Z,3.80
2023-03-13T17:11:36.911Z,3.73
2023-03-13T17:14:07.066Z,3.17
2023-03-13T17:16:35.860Z,3.00
2023-03-13T17:19:03.537Z,3.13
2023-03-13T17:21:34.969Z,3.17
2023-03-13T17:24:01.981Z,3.60
2023-03-13T17:26:36.340Z,3.30
2023-03-13T17:29:04.851Z,3.10
2023-03-13T17:31:37.246Z,4.00
2023-03-13T17:34:08.447Z,3.37
2023-03-13T17:36:36.058Z,3.07
2023-03-13T17:39:06.171Z,3.07
2023-03-13T17:41:34.526Z,4.13
2023-03-13T17:44:01.223Z,3.43
2023-03-13T17:46:34.853Z,2.73
2023-03-13T17:49:01.642Z,5.20
2023-03-13T17:51:30.508Z,3.83
2023-03-13T17:54:00.592Z,3.63
2023-03-13T17:56:32.882Z,3.40
2023-03-13T17:59:00.830Z,3.70
2023-03-13T18:01:30.243Z,3.90
2023-03-13T18:03:57.863Z,3.73
2023-03-13T18:06:32.201Z,3.47
2023-03-13T18:09:07.967Z,3.57
2023-03-13T18:11:36.617Z,3.70
2023-03-13T18:14:04.335Z,3.73
2023-03-13T18:16:38.110Z,3.53
2023-03-13T18:19:07.019Z,3.70
2023-03-13T18:21:34.681Z,4.00
2023-03-13T18:24:02.852Z,3.63
2023-03-13T18:26:35.078Z,3.77
2023-03-13T18:29:26.837Z,3.80
2023-03-13T18:31:55.380Z,3.90
2023-03-13T18:34:23.551Z,3.67
2023-03-13T18:36:50.469Z,3.93
2023-03-13T18:39:18.659Z,3.97
2023-03-13T18:41:52.630Z,3.47
2023-03-13T18:44:20.955Z,4.20
2023-03-13T18:46:47.741Z,4.73
2023-03-13T18:49:23.505Z,4.27
2023-03-13T18:51:52.372Z,4.13
2023-03-13T18:54:19.990Z,4.00
2023-03-13T18:56:50.230Z,4.40
2023-03-13T18:59:22.377Z,3.97
2023-03-13T19:01:51.143Z,3.70
2023-03-13T19:04:19.473Z,4.37
2023-03-13T19:06:46.854Z,4.17
2023-03-13T19:09:41.739Z,4.23
2023-03-13T19:12:05.154Z,4.93
2023-03-13T19:14:32.139Z,3.67
2023-03-13T19:16:59.169Z,4.60
2023-03-13T19:19:26.568Z,4.37
2023-03-13T19:21:57.537Z,4.50
2023-03-13T19:24:26.931Z,4.10
2023-03-13T19:26:58.931Z,4.30
2023-03-13T19:29:28.673Z,3.80
2023-03-13T19:31:55.987Z,5.00
2023-03-13T19:34:23.172Z,4.87
2023-03-13T19:36:50.790Z,4.83
2023-03-13T19:39:20.326Z,3.70
2023-03-13T19:41:48.528Z,5.50
2023-03-13T19:44:17.046Z,3.97
2023-03-13T19:46:44.402Z,4.70
2023-03-13T19:49:16.294Z,3.80
2023-03-13T19:51:43.533Z,4.00
2023-03-13T19:54:11.528Z,4.03
2023-03-13T19:56:44.130Z,3.63
2023-03-13T19:59:15.868Z,4.07
2023-03-13T20:01:43.921Z,3.73
2023-03-13T20:04:11.685Z,4.27
2023-03-13T20:06:40.354Z,4.27
2023-03-13T20:09:13.239Z,4.40
2023-03-13T20:11:40.445Z,5.10
2023-03-13T20:14:07.756Z,3.83
2023-03-13T20:16:35.530Z,4.30
2023-03-13T20:19:03.377Z,4.13
2023-03-13T20:21:33.007Z,4.13
2023-03-13T20:24:01.452Z,4.07
2023-03-13T20:26:30.710Z,3.97
2023-03-13T20:28:58.752Z,4.40
2023-03-13T20:31:31.544Z,4.50
2023-03-13T20:34:00.485Z,4.90
2023-03-13T20:36:27.995Z,3.90
2023-03-13T20:38:55.255Z,4.13
2023-03-13T20:41:25.774Z,5.10
2023-03-13T20:43:53.485Z,4.13
2023-03-13T20:46:21.424Z,4.37
2023-03-13T20:48:49.226Z,4.67
2023-03-13T20:51:16.744Z,4.07
2023-03-13T20:53:43.783Z,3.87
2023-03-13T20:56:11.795Z,5.30
2023-03-13T20:58:38.915Z,4.60
2023-03-13T21:01:07.221Z,4.30
2023-03-13T21:03:35.735Z,4.07
2023-03-13T21:06:14.529Z,4.00
2023-03-13T21:08:41.788Z,3.60
2023-03-13T21:11:19.780Z,4.43
2023-03-13T21:13:47.656Z,4.23
2023-03-13T21:16:15.404Z,4.37
2023-03-13T21:18:42.421Z,3.60
2023-03-13T21:21:13.337Z,4.37
2023-03-13T21:23:40.806Z,3.97
2023-03-13T21:26:07.547Z,4.30
2023-03-13T21:28:35.007Z,4.83
2023-03-13T21:31:09.464Z,3.53
2023-03-13T21:33:36.249Z,4.87
2023-03-13T21:36:03.062Z,4.53
2023-03-13T21:38:30.184Z,3.97
2023-03-13T21:40:58.321Z,3.93
2023-03-13T21:43:28.063Z,4.63
2023-03-13T21:45:56.746Z,4.57
2023-03-13T21:48:23.380Z,4.17
2023-03-13T21:50:53.794Z,5.13
2023-03-13T21:53:20.671Z,4.40
2023-03-13T21:55:51.606Z,4.47
2023-03-13T21:58:18.424Z,4.47
2023-03-13T22:00:45.682Z,5.60
2023-03-13T22:03:12.780Z,3.63
2023-03-13T22:05:44.353Z,4.27
2023-03-13T22:08:11.552Z,4.27
2023-03-13T22:10:39.062Z,4.40
2023-03-13T22:13:07.508Z,4.17
2023-03-13T22:15:34.534Z,5.30
2023-03-13T22:18:01.660Z,3.73
2023-03-13T22:20:28.327Z,4.30
2023-03-13T22:22:54.975Z,3.90
2023-03-13T22:25:21.755Z,3.60
2023-03-13T22:27:48.388Z,4.83
2023-03-13T22:30:15.308Z,4.50
2023-03-13T22:32:42.136Z,4.80
2023-03-13T22:35:09.357Z,4.20
2023-03-13T22:37:36.178Z,5.00
2023-03-13T22:40:03.498Z,4.40
2023-03-13T22:42:30.269Z,4.67
2023-03-13T22:44:57.498Z,3.60
2023-03-13T22:47:25.913Z,4.77
2023-03-13T22:49:53.684Z,4.57
2023-03-13T22:52:22.159Z,3.97
2023-03-13T22:54:48.867Z,3.53
2023-03-13T22:57:15.474Z,4.10
2023-03-13T22:59:42.109Z,4.73
2023-03-13T23:02:08.794Z,4.27
2023-03-13T23:04:35.476Z,4.20
2023-03-13T23:07:02.203Z,4.23
2023-03-13T23:09:28.854Z,4.37
2023-03-13T23:11:55.530Z,4.50
2023-03-13T23:14:22.241Z,3.73
2023-03-13T23:16:48.987Z,4.30
2023-03-13T23:19:15.658Z,4.73
2023-03-13T23:21:42.338Z,3.93
2023-03-13T23:24:09.012Z,5.27
2023-03-13T23:26:35.836Z,3.97
2023-03-13T23:29:02.533Z,4.60
2023-03-13T23:31:29.609Z,4.53
2023-03-13T23:33:56.358Z,4.00
2023-03-13T23:36:23.027Z,4.57
2023-03-13T23:38:51.909Z,4.07
2023-03-13T23:41:20.343Z,3.87
2023-03-13T23:43:47.010Z,4.67
2023-03-13T23:46:19.046Z,4.47
2023-03-13T23:48:45.783Z,4.60
2023-03-13T23:51:12.632Z,3.53
2023-03-13T23:53:41.329Z,4.13
2023-03-13T23:56:08.711Z,4.50
2023-03-13T23:58:35.423Z,4.57
